< Typhoon 196711 1967 Season Typhoon 196713 >
Typhoon 196712 (FRAN)
General InformationTrack Information on Google Maps || Disaster Info.ResourceGoogle EarthGE AnimationAtom FeedGeoJSON
Detalied Best Track (Time Zone = UTC)
Year Month Day Hour Lat. Long. Pressure (hPa) Wind (kt) Class Image Chart
1967 7 28 00 16.5 115.0 998 0 2 -- Chart
1967 7 28 06 16.5 114.9 998 0 2 -- Chart
1967 7 28 12 15.7 114.9 998 0 2 -- Chart
1967 7 28 18 15.4 115.2 998 0 2 -- Chart
1967 7 29 00 15.1 115.7 998 0 2 -- Chart
1967 7 29 06 15.3 116.3 996 0 2 -- Chart
1967 7 29 12 15.6 116.3 994 0 2 -- Chart
1967 7 29 18 16.3 115.9 992 0 2 -- Chart
1967 7 30 00 16.7 115.1 990 0 9 -- Chart
1967 7 30 06 16.8 114.4 988 0 9 -- Chart
1967 7 30 12 17.1 114.2 986 0 9 -- Chart
1967 7 30 18 17.3 114.0 986 0 9 -- Chart
1967 7 31 00 17.5 113.5 984 0 9 -- Chart
1967 7 31 06 17.7 113.0 984 0 9 -- Chart
1967 7 31 12 18.0 112.5 982 0 9 -- Chart
1967 7 31 18 18.1 112.0 982 0 9 -- Chart
1967 8 1 00 18.6 111.8 982 0 9 -- Chart
1967 8 1 06 19.0 111.9 982 0 9 -- Chart
1967 8 1 12 19.2 112.0 984 0 9 -- Chart
1967 8 1 18 19.8 111.9 984 0 9 -- Chart
1967 8 2 00 20.3 111.3 988 0 9 -- Chart
1967 8 2 06 20.9 111.0 990 0 9 -- Chart
1967 8 2 12 21.4 110.8 990 0 9 -- Chart
1967 8 2 18 22.0 110.5 994 0 2 -- Chart
1967 8 3 00 22.9 110.5 994 0 2 -- Chart
1967 8 3 06 23.5 110.0 996 0 2 -- Chart
1967 8 3 12 24.5 109.8 996 0 2 -- Chart
1967 8 3 18 25.4 109.3 996 0 6 -- Chart
1967 8 4 00 26.0 108.9 996 0 6 -- Chart
1967 8 4 06 26.8 108.6 996 0 6 -- Chart
1967 8 4 12 27.5 108.0 997 0 6 -- Chart
1967 8 4 18 28.3 107.4 997 0 6 -- Chart
1967 8 5 00 28.8 106.6 998 0 6 -- Chart
1967 8 5 06 29.1 106.2 997 0 6 -- Chart
1967 8 5 12 29.5 105.6 996 0 6 -- Chart
1967 8 5 18 29.7 105.0 998 0 6 -- Chart
Japan Meteorological Agency Best Track Data | Correction Date : 1989-06-01
< Typhoon 196711 1967 Season Typhoon 196713 >

Help